createdAt,value
2018-10-02T00:00:28.087Z,946.20
2018-10-02T00:01:36.243Z,946.22
2018-10-02T00:02:44.292Z,946.21
2018-10-02T00:03:52.269Z,946.26
2018-10-02T00:05:00.335Z,946.26
2018-10-02T00:07:20.887Z,946.29
2018-10-02T00:08:28.954Z,946.31
2018-10-02T00:09:37.005Z,946.29
2018-10-02T00:10:45.423Z,946.34
2018-10-02T00:11:53.115Z,946.28
2018-10-02T00:13:01.293Z,946.32
2018-10-02T00:14:09.275Z,946.32
2018-10-02T00:15:17.328Z,946.36
2018-10-02T00:16:25.646Z,946.35
2018-10-02T00:17:33.467Z,946.35
2018-10-02T00:18:41.511Z,946.34
2018-10-02T00:19:49.555Z,946.34
2018-10-02T00:20:59.431Z,946.35
2018-10-02T00:23:23.731Z,946.39
2018-10-02T00:26:53.043Z,946.40
2018-10-02T00:28:01.122Z,946.43
2018-10-02T00:29:09.266Z,946.47
2018-10-02T00:30:17.228Z,946.46
2018-10-02T00:31:25.350Z,946.46
2018-10-02T00:32:33.389Z,946.47
2018-10-02T00:33:41.417Z,946.48
2018-10-02T00:34:49.573Z,946.42
2018-10-02T00:35:57.529Z,946.44
2018-10-02T00:37:05.600Z,946.43
2018-10-02T00:38:13.642Z,946.41
2018-10-02T00:39:21.720Z,946.46
2018-10-02T00:40:29.863Z,946.46
2018-10-02T00:41:37.832Z,946.45
2018-10-02T00:42:45.886Z,946.46
2018-10-02T00:43:53.958Z,946.43
2018-10-02T00:45:02.014Z,946.44
2018-10-02T00:46:10.157Z,946.46
2018-10-02T00:47:18.126Z,946.47
2018-10-02T00:48:26.276Z,946.47
2018-10-02T00:49:34.258Z,946.44
2018-10-02T00:50:42.310Z,946.45
2018-10-02T00:51:50.473Z,946.43
2018-10-02T00:52:58.432Z,946.41
2018-10-02T00:54:06.504Z,946.41
2018-10-02T00:55:14.564Z,946.43
2018-10-02T00:56:22.606Z,946.37
2018-10-02T00:57:30.784Z,946.39
2018-10-02T00:58:38.739Z,946.41
2018-10-02T00:59:48.601Z,946.43
2018-10-02T01:00:56.659Z,946.39
2018-10-02T01:02:04.745Z,946.41
2018-10-02T01:03:12.816Z,946.37
2018-10-02T01:04:20.951Z,946.39
2018-10-02T01:05:28.912Z,946.37
2018-10-02T01:06:36.979Z,946.39
2018-10-02T01:07:45.028Z,946.39
2018-10-02T01:08:53.154Z,946.38
2018-10-02T01:10:01.155Z,946.36
2018-10-02T01:11:09.212Z,946.36
2018-10-02T01:12:18.671Z,946.36
2018-10-02T01:13:26.741Z,946.36
2018-10-02T01:14:34.882Z,946.30
2018-10-02T01:15:42.828Z,946.34
2018-10-02T01:16:50.933Z,946.32
2018-10-02T01:17:58.980Z,946.32
2018-10-02T01:19:07.043Z,946.35
2018-10-02T01:20:15.197Z,946.36
2018-10-02T01:21:23.136Z,946.35
2018-10-02T01:22:31.222Z,946.37
2018-10-02T01:23:39.275Z,946.36
2018-10-02T01:24:47.338Z,946.38
2018-10-02T01:25:55.490Z,946.41
2018-10-02T01:27:03.445Z,946.45
2018-10-02T01:28:11.523Z,946.44
2018-10-02T01:29:19.577Z,946.46
2018-10-02T01:30:27.647Z,946.48
2018-10-02T01:31:35.810Z,946.49
2018-10-02T01:32:43.772Z,946.53
2018-10-02T01:33:51.825Z,946.47
2018-10-02T01:34:59.879Z,946.48
2018-10-02T01:36:08.034Z,946.51
2018-10-02T01:37:16.091Z,946.48
2018-10-02T01:38:24.061Z,946.45
2018-10-02T01:39:32.121Z,946.45
2018-10-02T01:40:40.182Z,946.43
2018-10-02T01:41:48.246Z,946.48
2018-10-02T01:42:56.344Z,946.44
2018-10-02T01:44:04.474Z,946.49
2018-10-02T01:45:12.421Z,946.47
2018-10-02T01:46:20.474Z,946.45
2018-10-02T01:47:28.647Z,946.45
2018-10-02T01:48:36.598Z,946.44
2018-10-02T01:49:44.660Z,946.44
2018-10-02T01:50:52.706Z,946.42
2018-10-02T01:52:00.873Z,946.42
2018-10-02T01:53:08.931Z,946.40
2018-10-02T01:54:16.894Z,946.38
2018-10-02T01:55:24.959Z,946.43
2018-10-02T01:56:32.983Z,946.39
2018-10-02T01:57:41.071Z,946.39
2018-10-02T01:58:49.241Z,946.38
2018-10-02T01:59:57.200Z,946.42
2018-10-02T02:01:05.251Z,946.42
2018-10-02T02:02:13.282Z,946.44
2018-10-02T02:03:21.378Z,946.39
2018-10-02T02:04:29.552Z,946.36
2018-10-02T02:05:37.492Z,946.37
2018-10-02T02:06:45.571Z,946.39
2018-10-02T02:07:53.673Z,946.40
2018-10-02T02:09:01.685Z,946.41
2018-10-02T02:10:09.828Z,946.39
2018-10-02T02:11:17.795Z,946.44
2018-10-02T02:12:25.856Z,946.40
2018-10-02T02:13:33.909Z,946.40
2018-10-02T02:14:41.976Z,946.40
2018-10-02T02:15:50.129Z,946.37
2018-10-02T02:16:58.100Z,946.39
2018-10-02T02:18:06.147Z,946.34
2018-10-02T02:19:14.207Z,946.35
2018-10-02T02:20:22.312Z,946.33
2018-10-02T02:21:30.430Z,946.31
2018-10-02T02:22:38.522Z,946.31
2018-10-02T02:23:46.460Z,946.30
2018-10-02T02:24:54.504Z,946.32
2018-10-02T02:26:02.552Z,946.33
2018-10-02T02:27:10.730Z,946.34
2018-10-02T02:28:18.692Z,946.37
2018-10-02T02:29:26.742Z,946.42
2018-10-02T02:30:34.807Z,946.41
2018-10-02T02:31:42.848Z,946.37
2018-10-02T02:32:51.003Z,946.35
2018-10-02T02:33:58.996Z,946.36
2018-10-02T02:35:07.039Z,946.36
2018-10-02T02:36:15.110Z,946.38
2018-10-02T02:37:23.149Z,946.38
2018-10-02T02:38:31.223Z,946.37
2018-10-02T02:39:39.283Z,946.33
2018-10-02T02:40:47.364Z,946.39
2018-10-02T02:41:55.544Z,946.43
2018-10-02T02:43:03.514Z,946.46
2018-10-02T02:44:11.524Z,946.47
2018-10-02T02:45:19.587Z,946.46
2018-10-02T02:46:27.649Z,946.44
2018-10-02T02:47:35.808Z,946.49
2018-10-02T02:48:43.769Z,946.48
2018-10-02T02:49:51.827Z,946.47
2018-10-02T02:50:59.875Z,946.44
2018-10-02T02:52:07.950Z,946.43
2018-10-02T02:53:16.087Z,946.48
2018-10-02T02:54:24.057Z,946.48
2018-10-02T02:55:32.134Z,946.52
2018-10-02T02:56:40.179Z,946.49
2018-10-02T02:57:48.240Z,946.54
2018-10-02T02:58:56.392Z,946.50
2018-10-02T03:00:04.399Z,946.56
2018-10-02T03:01:12.406Z,946.53
2018-10-02T03:02:20.470Z,946.51
2018-10-02T03:03:28.543Z,946.54
2018-10-02T03:04:36.688Z,946.50
2018-10-02T03:05:44.652Z,946.50
2018-10-02T03:06:52.697Z,946.48
2018-10-02T03:08:00.781Z,946.51
2018-10-02T03:09:08.930Z,946.54
2018-10-02T03:10:16.988Z,946.53
2018-10-02T03:11:24.962Z,946.52
2018-10-02T03:12:32.984Z,946.51
2018-10-02T03:13:41.059Z,946.53
2018-10-02T03:14:49.122Z,946.51
2018-10-02T03:15:57.280Z,946.50
2018-10-02T03:17:05.251Z,946.48
2018-10-02T03:18:13.280Z,946.52
2018-10-02T03:19:21.384Z,946.56
2018-10-02T03:20:29.424Z,946.52
2018-10-02T03:21:37.610Z,946.55
2018-10-02T03:22:45.551Z,946.56
2018-10-02T03:23:53.605Z,946.55
2018-10-02T03:25:01.777Z,946.60
2018-10-02T03:26:09.721Z,946.61
2018-10-02T03:27:17.787Z,946.66
2018-10-02T03:28:25.837Z,946.68
2018-10-02T03:29:33.898Z,946.65
2018-10-02T03:30:41.961Z,946.66
2018-10-02T03:31:50.111Z,946.62
2018-10-02T03:32:58.089Z,946.64
2018-10-02T03:34:06.145Z,946.66
2018-10-02T03:35:14.208Z,946.63
2018-10-02T03:36:22.264Z,946.62
2018-10-02T03:37:30.368Z,946.59
2018-10-02T03:38:38.375Z,946.59
2018-10-02T03:39:46.431Z,946.56
2018-10-02T03:40:54.588Z,946.60
2018-10-02T03:42:02.534Z,946.58
2018-10-02T03:43:10.704Z,946.63
2018-10-02T03:44:18.662Z,946.65
2018-10-02T03:45:26.733Z,946.69
2018-10-02T03:46:34.785Z,946.65
2018-10-02T03:47:42.876Z,946.67
2018-10-02T03:48:50.930Z,946.65
2018-10-02T03:49:58.963Z,946.64
2018-10-02T03:51:07.014Z,946.65
2018-10-02T03:52:15.079Z,946.60
2018-10-02T03:53:23.195Z,946.60
2018-10-02T03:54:31.198Z,946.57
2018-10-02T03:55:39.260Z,946.59
2018-10-02T03:56:47.406Z,946.61
2018-10-02T03:57:55.369Z,946.64
2018-10-02T03:59:03.515Z,946.65
2018-10-02T04:00:11.613Z,946.64
2018-10-02T04:01:20.378Z,946.66
2018-10-02T04:02:27.590Z,946.64
2018-10-02T04:03:35.771Z,946.68
2018-10-02T04:04:43.804Z,946.72
2018-10-02T04:05:51.779Z,946.71
2018-10-02T04:06:59.890Z,946.71
2018-10-02T04:08:07.904Z,946.74
2018-10-02T04:09:15.955Z,946.73
2018-10-02T04:10:24.137Z,946.71
2018-10-02T04:11:34.051Z,946.71
2018-10-02T04:12:40.252Z,946.66
2018-10-02T04:13:48.179Z,946.66
2018-10-02T04:14:56.231Z,946.64
2018-10-02T04:16:04.391Z,946.65
2018-10-02T04:17:12.365Z,946.67
2018-10-02T04:18:20.418Z,946.65
2018-10-02T04:19:28.471Z,946.67
2018-10-02T04:20:36.713Z,946.64
2018-10-02T04:21:45.309Z,946.65
2018-10-02T04:22:52.766Z,946.69
2018-10-02T04:24:00.716Z,946.72
2018-10-02T04:25:08.763Z,946.74
2018-10-02T04:26:16.821Z,946.76
2018-10-02T04:27:25.227Z,946.75
2018-10-02T04:28:32.969Z,946.76
2018-10-02T04:29:40.983Z,946.73
2018-10-02T04:30:49.185Z,946.70
2018-10-02T04:31:57.108Z,946.68
2018-10-02T04:33:05.211Z,946.68
2018-10-02T04:34:13.280Z,946.68
2018-10-02T04:35:21.270Z,946.71
2018-10-02T04:36:29.470Z,946.77
2018-10-02T04:37:37.436Z,946.74
2018-10-02T04:38:45.448Z,946.77
2018-10-02T04:39:53.499Z,946.78
2018-10-02T04:41:01.571Z,946.76
2018-10-02T04:42:09.629Z,946.76
2018-10-02T04:43:17.781Z,946.76
2018-10-02T04:44:25.748Z,946.78
2018-10-02T04:45:33.795Z,946.77
2018-10-02T04:46:41.875Z,946.81
2018-10-02T04:47:49.926Z,946.74
2018-10-02T04:48:57.971Z,946.78
2018-10-02T04:50:06.028Z,946.79
2018-10-02T04:51:14.388Z,946.79
2018-10-02T04:52:22.185Z,946.79
2018-10-02T04:53:30.439Z,946.78
2018-10-02T04:54:38.326Z,946.80
2018-10-02T04:55:46.435Z,946.74
2018-10-02T04:56:54.382Z,946.76
2018-10-02T04:58:02.637Z,946.78
2018-10-02T04:59:10.595Z,946.80
2018-10-02T05:00:19.281Z,946.85
2018-10-02T05:01:26.602Z,946.88
2018-10-02T05:02:34.670Z,946.88
2018-10-02T05:03:42.708Z,946.87
2018-10-02T05:04:50.886Z,946.92
2018-10-02T05:05:58.842Z,946.89
2018-10-02T05:07:06.912Z,946.97
2018-10-02T05:08:15.017Z,946.97
2018-10-02T05:09:23.004Z,946.94
2018-10-02T05:10:31.180Z,946.97
2018-10-02T05:11:39.142Z,946.96
2018-10-02T05:12:47.297Z,946.94
2018-10-02T05:13:55.257Z,946.97
2018-10-02T05:15:03.288Z,947.00
2018-10-02T05:16:11.478Z,946.98
2018-10-02T05:17:19.437Z,946.97
2018-10-02T05:18:27.492Z,946.97
2018-10-02T05:19:35.551Z,946.99
2018-10-02T05:20:43.613Z,947.02
2018-10-02T05:21:51.762Z,947.03
2018-10-02T05:22:59.720Z,947.04
2018-10-02T05:24:07.879Z,947.07
2018-10-02T05:25:15.850Z,947.08
2018-10-02T05:26:23.891Z,947.18
2018-10-02T05:27:32.111Z,947.19
2018-10-02T05:28:40.009Z,947.20
2018-10-02T05:29:48.078Z,947.22
2018-10-02T05:30:56.132Z,947.23
2018-10-02T05:32:04.184Z,947.26
2018-10-02T05:33:12.301Z,947.22
2018-10-02T05:34:20.314Z,947.25
2018-10-02T05:35:28.435Z,947.28
2018-10-02T05:36:36.428Z,947.27
2018-10-02T05:37:44.577Z,947.22
2018-10-02T05:38:52.535Z,947.22
2018-10-02T05:40:00.697Z,947.25
2018-10-02T05:41:08.672Z,947.22
2018-10-02T05:42:16.739Z,947.28
2018-10-02T05:43:24.872Z,947.26
2018-10-02T05:44:32.819Z,947.20
2018-10-02T05:45:40.896Z,947.20
2018-10-02T05:46:48.947Z,947.20
2018-10-02T05:47:57.130Z,947.21
2018-10-02T05:49:05.067Z,947.23
2018-10-02T05:50:13.128Z,947.22
2018-10-02T05:51:21.184Z,947.19
2018-10-02T05:52:29.257Z,947.24
2018-10-02T05:53:37.415Z,947.27
2018-10-02T05:54:45.371Z,947.25
2018-10-02T05:55:53.506Z,947.25
2018-10-02T05:57:01.490Z,947.27
2018-10-02T05:58:09.559Z,947.30
2018-10-02T05:59:17.709Z,947.34
2018-10-02T06:00:25.665Z,947.36
2018-10-02T06:01:33.724Z,947.34
2018-10-02T06:02:41.780Z,947.36
2018-10-02T06:03:49.943Z,947.36
2018-10-02T06:04:57.983Z,947.28
2018-10-02T06:06:05.959Z,947.26
2018-10-02T06:07:14.023Z,947.23
2018-10-02T06:08:22.088Z,947.27
2018-10-02T06:09:30.234Z,947.24
2018-10-02T06:10:38.181Z,947.21
2018-10-02T06:11:46.349Z,947.25
2018-10-02T06:12:54.328Z,947.28
2018-10-02T06:14:02.379Z,947.31
2018-10-02T06:15:10.533Z,947.31
2018-10-02T06:16:18.495Z,947.34
2018-10-02T06:17:26.559Z,947.41
2018-10-02T06:18:34.629Z,947.48
2018-10-02T06:19:42.675Z,947.45
2018-10-02T06:20:50.826Z,947.47
2018-10-02T06:21:58.789Z,947.45
2018-10-02T06:23:06.848Z,947.45
2018-10-02T06:24:14.915Z,947.51
2018-10-02T06:25:22.959Z,947.52
2018-10-02T06:26:31.128Z,947.52
2018-10-02T06:27:39.175Z,947.51
2018-10-02T06:28:47.155Z,947.57
2018-10-02T06:29:55.218Z,947.59
2018-10-02T06:31:03.254Z,947.60
2018-10-02T06:32:11.430Z,947.59
2018-10-02T06:33:19.377Z,947.53
2018-10-02T06:34:27.456Z,947.53
2018-10-02T06:35:35.517Z,947.52
2018-10-02T06:36:43.589Z,947.51
2018-10-02T06:37:51.721Z,947.51
2018-10-02T06:38:59.757Z,947.51
2018-10-02T06:40:07.754Z,947.53
2018-10-02T06:41:15.812Z,947.65
2018-10-02T06:42:23.893Z,947.66
2018-10-02T06:43:31.945Z,947.68
2018-10-02T06:44:40.068Z,947.73
2018-10-02T06:45:48.055Z,947.73
2018-10-02T06:46:56.116Z,947.77
2018-10-02T06:48:04.281Z,947.73
2018-10-02T06:49:12.236Z,947.72
2018-10-02T06:50:20.302Z,947.72
2018-10-02T06:51:28.466Z,947.65
2018-10-02T06:52:36.914Z,947.64
2018-10-02T06:53:44.493Z,947.63
2018-10-02T06:54:52.539Z,947.66
2018-10-02T06:56:00.644Z,947.64
2018-10-02T06:57:08.739Z,947.62
2018-10-02T06:58:16.865Z,947.60
2018-10-02T06:59:24.795Z,947.62
2018-10-02T07:00:32.878Z,947.61
2018-10-02T07:01:40.911Z,947.56
2018-10-02T07:02:48.995Z,947.63
2018-10-02T07:03:57.133Z,947.62
2018-10-02T07:05:05.092Z,947.66
2018-10-02T07:06:13.150Z,947.69
2018-10-02T07:07:21.216Z,947.81
2018-10-02T07:08:29.327Z,947.95
2018-10-02T07:09:37.439Z,948.01
2018-10-02T07:10:45.389Z,948.34
2018-10-02T07:11:53.450Z,949.03
2018-10-02T07:13:01.541Z,950.58
2018-10-02T07:14:09.711Z,952.11
2018-10-02T07:15:17.737Z,953.11
2018-10-02T07:16:25.717Z,953.83
2018-10-02T07:17:33.828Z,954.89
2018-10-02T07:18:41.831Z,952.04
2018-10-02T07:19:49.892Z,951.66
2018-10-02T07:20:58.111Z,957.61
2018-10-02T07:22:06.040Z,956.84
2018-10-02T07:23:14.096Z,950.20
2018-10-02T07:24:22.149Z,950.13
2018-10-02T07:25:30.225Z,949.22
2018-10-02T07:26:38.381Z,948.55
2018-10-02T07:27:46.490Z,950.25
2018-10-02T07:28:54.413Z,948.18
2018-10-02T07:30:02.547Z,948.46
2018-10-02T07:31:10.624Z,948.36
2018-10-02T07:32:18.606Z,948.35
2018-10-02T07:33:26.663Z,948.32
2018-10-02T07:34:34.864Z,948.42
2018-10-02T07:35:42.782Z,948.86
2018-10-02T07:36:50.969Z,948.63
2018-10-02T07:37:58.934Z,949.03
2018-10-02T07:39:07.042Z,948.71
2018-10-02T07:40:15.055Z,948.33
2018-10-02T07:41:23.147Z,948.64
2018-10-02T07:42:31.279Z,948.28
2018-10-02T07:43:39.252Z,948.44
2018-10-02T07:44:47.315Z,948.45
2018-10-02T07:45:55.468Z,948.59
2018-10-02T07:47:03.437Z,948.48
2018-10-02T07:48:11.601Z,948.53
2018-10-02T07:49:19.564Z,948.74
2018-10-02T07:50:27.658Z,949.77
2018-10-02T07:51:35.705Z,949.00
2018-10-02T07:52:43.859Z,948.48
2018-10-02T07:53:51.846Z,948.60
2018-10-02T07:54:59.903Z,948.43
2018-10-02T07:56:07.961Z,948.34
2018-10-02T07:57:16.032Z,948.35
2018-10-02T07:58:24.180Z,948.29
2018-10-02T07:59:32.182Z,948.23
2018-10-02T08:00:40.211Z,948.28
2018-10-02T08:01:48.383Z,948.34
2018-10-02T08:02:56.392Z,948.31
2018-10-02T08:04:04.502Z,948.30
2018-10-02T08:05:12.590Z,948.34
2018-10-02T08:06:20.533Z,948.37
2018-10-02T08:07:28.612Z,948.39
2018-10-02T08:08:36.678Z,948.38
2018-10-02T08:09:44.842Z,948.39
2018-10-02T08:10:52.780Z,948.40
2018-10-02T08:12:00.968Z,948.41
2018-10-02T08:13:08.932Z,948.44
2018-10-02T08:14:16.984Z,948.45
2018-10-02T08:15:25.152Z,948.46
2018-10-02T08:16:33.100Z,948.49
2018-10-02T08:17:41.319Z,948.43
2018-10-02T08:18:49.282Z,948.42
2018-10-02T08:19:57.338Z,948.44
2018-10-02T08:21:05.515Z,948.46
2018-10-02T08:22:13.430Z,948.49
2018-10-02T08:23:21.528Z,948.42
2018-10-02T08:24:29.569Z,948.29
2018-10-02T08:25:37.627Z,948.28
2018-10-02T08:26:45.948Z,948.19
2018-10-02T08:27:53.779Z,948.21
2018-10-02T08:29:01.835Z,948.37
2018-10-02T08:30:09.971Z,948.42
2018-10-02T08:31:17.952Z,948.38
2018-10-02T08:32:26.326Z,948.34
2018-10-02T08:33:34.074Z,948.38
2018-10-02T08:34:42.136Z,948.42
2018-10-02T08:35:50.408Z,948.46
2018-10-02T08:36:58.260Z,948.52
2018-10-02T08:38:06.389Z,948.50
2018-10-02T08:39:14.416Z,948.54
2018-10-02T08:40:22.464Z,948.58
2018-10-02T08:41:30.543Z,948.63
2018-10-02T08:42:38.688Z,948.63
2018-10-02T08:43:46.673Z,948.58
2018-10-02T08:44:54.789Z,948.54
2018-10-02T08:46:02.774Z,948.54
2018-10-02T08:47:10.858Z,948.52
2018-10-02T08:48:19.020Z,948.48
2018-10-02T08:49:26.987Z,948.51
2018-10-02T08:50:35.105Z,948.49
2018-10-02T08:51:43.171Z,948.48
2018-10-02T08:52:51.168Z,948.48
2018-10-02T08:53:59.379Z,948.51
2018-10-02T08:55:07.303Z,948.54
2018-10-02T08:56:15.371Z,948.57
2018-10-02T08:57:23.420Z,948.60
2018-10-02T08:58:31.495Z,948.59
2018-10-02T08:59:39.657Z,948.55
2018-10-02T09:00:47.791Z,948.48
2018-10-02T09:01:55.701Z,948.45
2018-10-02T09:03:03.877Z,948.34
2018-10-02T09:04:11.837Z,948.35
2018-10-02T09:05:19.999Z,948.34
2018-10-02T09:06:28.027Z,948.34
2018-10-02T09:07:36.028Z,948.29
2018-10-02T09:08:44.097Z,948.22
2018-10-02T09:09:52.170Z,948.23
2018-10-02T09:11:00.323Z,948.23
2018-10-02T09:12:08.298Z,948.22
2018-10-02T09:13:16.353Z,948.18
2018-10-02T09:14:24.431Z,948.18
2018-10-02T09:15:32.566Z,948.21
2018-10-02T09:16:40.736Z,948.18
2018-10-02T09:17:48.623Z,948.22
2018-10-02T09:18:56.861Z,948.25
2018-10-02T09:20:04.758Z,948.29
2018-10-02T09:21:12.809Z,948.31
2018-10-02T09:22:20.991Z,948.29
2018-10-02T09:23:28.942Z,948.26
2018-10-02T09:24:37.083Z,948.37
2018-10-02T09:25:45.073Z,948.47
2018-10-02T09:26:53.130Z,948.43
2018-10-02T09:28:01.256Z,948.37
2018-10-02T09:29:09.267Z,948.37
2018-10-02T09:30:17.396Z,948.43
2018-10-02T09:31:25.405Z,948.38
2018-10-02T09:32:33.493Z,948.31
2018-10-02T09:33:41.638Z,948.34
2018-10-02T09:34:49.694Z,948.32
2018-10-02T09:35:57.680Z,948.23
2018-10-02T09:37:05.883Z,948.21
2018-10-02T09:38:13.894Z,948.19
2018-10-02T09:39:21.860Z,948.19
2018-10-02T09:40:29.930Z,948.22
2018-10-02T09:41:37.988Z,948.23
2018-10-02T09:42:46.200Z,948.23
2018-10-02T09:43:54.203Z,948.13
2018-10-02T09:45:02.193Z,948.17
2018-10-02T09:46:10.262Z,948.14
2018-10-02T09:47:18.329Z,948.17
2018-10-02T09:48:26.530Z,948.27
2018-10-02T09:49:34.455Z,948.18
2018-10-02T09:50:42.704Z,948.17
2018-10-02T09:51:50.645Z,948.21
2018-10-02T09:52:58.650Z,948.27
2018-10-02T09:54:06.769Z,948.31
2018-10-02T09:55:14.786Z,948.34
2018-10-02T09:56:22.891Z,948.30
2018-10-02T09:57:30.905Z,948.30
2018-10-02T09:58:39.060Z,948.26
2018-10-02T09:59:47.154Z,948.27
2018-10-02T10:00:55.171Z,948.31
2018-10-02T10:02:03.158Z,948.32
2018-10-02T10:03:11.357Z,948.31
2018-10-02T10:04:19.402Z,948.39
2018-10-02T10:05:27.470Z,948.34
2018-10-02T10:06:35.533Z,948.27
2018-10-02T10:07:43.502Z,948.30
2018-10-02T10:08:51.579Z,948.41
2018-10-02T10:09:59.647Z,948.44
2018-10-02T10:11:07.840Z,948.38
2018-10-02T10:12:15.779Z,948.39
2018-10-02T10:13:23.841Z,948.39
2018-10-02T10:14:31.916Z,948.42
2018-10-02T10:15:39.980Z,948.48
2018-10-02T10:16:48.259Z,948.46
2018-10-02T10:17:56.115Z,948.43
2018-10-02T10:19:04.181Z,948.40
2018-10-02T10:20:12.255Z,948.32
2018-10-02T10:21:20.327Z,948.33
2018-10-02T10:22:28.522Z,948.39
2018-10-02T10:23:36.463Z,948.40
2018-10-02T10:24:44.523Z,948.35
2018-10-02T10:25:52.579Z,948.40
2018-10-02T10:27:00.654Z,948.37
2018-10-02T10:28:08.829Z,948.37
2018-10-02T10:29:16.804Z,948.37
2018-10-02T10:30:24.878Z,948.35
2018-10-02T10:31:32.915Z,948.38
2018-10-02T10:32:41.048Z,948.36
2018-10-02T10:33:49.064Z,948.37
2018-10-02T10:34:57.165Z,948.33
2018-10-02T10:36:05.218Z,948.31
2018-10-02T10:37:13.416Z,948.24
2018-10-02T10:38:21.439Z,948.32
2018-10-02T10:39:29.398Z,948.30
2018-10-02T10:40:37.565Z,948.33
2018-10-02T10:41:45.548Z,948.35
2018-10-02T10:42:53.600Z,948.34
2018-10-02T10:44:01.788Z,948.23
2018-10-02T10:45:09.744Z,948.26
2018-10-02T10:46:17.801Z,948.26
2018-10-02T10:47:25.874Z,948.28
2018-10-02T10:48:33.942Z,948.22
2018-10-02T10:49:42.113Z,948.26
2018-10-02T10:50:50.064Z,948.25
2018-10-02T10:51:58.150Z,948.22
2018-10-02T10:53:06.572Z,948.14
2018-10-02T10:54:14.282Z,948.15
2018-10-02T10:55:22.458Z,948.22
2018-10-02T10:56:30.487Z,948.23
2018-10-02T10:57:38.479Z,948.25
2018-10-02T10:58:46.578Z,948.31
2018-10-02T10:59:54.623Z,948.25
2018-10-02T11:01:02.781Z,948.28
2018-10-02T11:02:10.759Z,948.26
2018-10-02T11:03:18.817Z,948.29
2018-10-02T11:04:27.313Z,948.22
2018-10-02T11:05:34.976Z,948.16
2018-10-02T11:06:43.099Z,948.18
2018-10-02T11:07:51.228Z,948.17
2018-10-02T11:08:59.255Z,948.18
2018-10-02T11:10:07.234Z,948.18
2018-10-02T11:11:15.296Z,948.19
2018-10-02T11:12:23.453Z,948.10
2018-10-02T11:13:31.445Z,948.03
2018-10-02T11:14:39.513Z,948.04
2018-10-02T11:15:47.566Z,947.94
2018-10-02T11:16:55.637Z,948.01
2018-10-02T11:18:03.745Z,948.09
2018-10-02T11:19:11.759Z,948.07
2018-10-02T11:20:19.839Z,948.06
2018-10-02T11:21:27.896Z,948.05
2018-10-02T11:22:36.050Z,948.01
2018-10-02T11:23:44.037Z,947.90
2018-10-02T11:24:52.186Z,947.92
2018-10-02T11:26:00.154Z,947.87
2018-10-02T11:27:08.233Z,947.93
2018-10-02T11:28:16.344Z,948.01
2018-10-02T11:29:24.379Z,948.07
2018-10-02T11:30:32.437Z,948.01
2018-10-02T11:31:40.518Z,947.99
2018-10-02T11:32:48.661Z,948.02
2018-10-02T11:33:56.631Z,948.00
2018-10-02T11:35:04.697Z,948.01
2018-10-02T11:36:12.752Z,948.03
2018-10-02T11:37:20.879Z,948.01
2018-10-02T11:38:29.417Z,948.03
2018-10-02T11:39:36.965Z,948.03
2018-10-02T11:40:45.141Z,948.08
2018-10-02T11:41:53.609Z,947.99
2018-10-02T11:43:01.237Z,947.98
2018-10-02T11:44:09.353Z,947.98
2018-10-02T11:45:17.299Z,947.90
2018-10-02T11:46:25.374Z,947.90
2018-10-02T11:47:33.428Z,947.90
2018-10-02T11:48:41.510Z,947.85
2018-10-02T11:49:49.900Z,947.85
2018-10-02T11:50:57.719Z,947.85
2018-10-02T11:52:05.714Z,947.91
2018-10-02T11:53:13.764Z,947.89
2018-10-02T11:54:21.839Z,947.79
2018-10-02T11:55:30.047Z,947.73
2018-10-02T11:56:38.061Z,947.70
2018-10-02T11:57:46.063Z,947.65
2018-10-02T11:58:54.119Z,947.66
2018-10-02T12:00:02.180Z,947.67
2018-10-02T12:01:10.459Z,947.66
2018-10-02T12:02:18.319Z,947.68
2018-10-02T12:03:26.481Z,947.75
2018-10-02T12:04:34.496Z,947.78
2018-10-02T12:05:42.516Z,947.74
2018-10-02T12:06:51.693Z,947.76
2018-10-02T12:07:58.645Z,947.75
2018-10-02T12:09:06.800Z,947.72
2018-10-02T12:10:14.768Z,947.72
2018-10-02T12:11:22.971Z,947.71
2018-10-02T12:12:31.738Z,947.70
2018-10-02T12:13:39.440Z,947.61
2018-10-02T12:14:47.101Z,947.60
2018-10-02T12:15:55.110Z,947.65
2018-10-02T12:17:03.165Z,947.71
2018-10-02T12:18:11.343Z,947.72
2018-10-02T12:19:19.341Z,947.73
2018-10-02T12:20:27.384Z,947.67
2018-10-02T12:21:35.463Z,947.57
2018-10-02T12:22:43.562Z,947.59
2018-10-02T12:23:52.070Z,947.61
2018-10-02T12:24:59.654Z,947.58
2018-10-02T12:26:07.717Z,947.52
2018-10-02T12:27:15.817Z,947.50
2018-10-02T12:28:23.975Z,947.50
2018-10-02T12:29:31.923Z,947.47
2018-10-02T12:30:39.986Z,947.53
2018-10-02T12:31:48.054Z,947.56
2018-10-02T12:32:56.137Z,947.53
2018-10-02T12:34:04.283Z,947.56
2018-10-02T12:35:12.347Z,947.56
2018-10-02T12:36:20.326Z,947.59
2018-10-02T12:37:28.378Z,947.63
2018-10-02T12:38:36.523Z,947.57
2018-10-02T12:39:44.640Z,947.50
2018-10-02T12:40:52.678Z,947.47
2018-10-02T12:42:00.663Z,947.46
2018-10-02T12:43:08.741Z,947.47
2018-10-02T12:44:16.800Z,947.48
2018-10-02T12:45:24.952Z,947.48
2018-10-02T12:46:32.912Z,947.47
2018-10-02T12:47:40.989Z,947.48
2018-10-02T12:48:49.053Z,947.41
2018-10-02T12:49:57.539Z,947.38
2018-10-02T12:51:05.280Z,947.47
2018-10-02T12:52:13.341Z,947.45
2018-10-02T12:53:21.371Z,947.45
2018-10-02T12:54:29.383Z,947.47
2018-10-02T12:55:37.471Z,947.47
2018-10-02T12:56:45.625Z,947.48
2018-10-02T12:57:53.590Z,947.44
2018-10-02T12:59:01.667Z,947.39
2018-10-02T13:00:09.743Z,947.35
2018-10-02T13:01:17.820Z,947.35
2018-10-02T13:02:25.960Z,947.39
2018-10-02T13:03:33.927Z,947.33
2018-10-02T13:04:41.987Z,947.39
2018-10-02T13:05:50.066Z,947.33
2018-10-02T13:06:58.291Z,947.32
2018-10-02T13:08:06.236Z,947.35
2018-10-02T13:09:14.323Z,947.34
2018-10-02T13:10:22.336Z,947.34
2018-10-02T13:11:30.446Z,947.39
2018-10-02T13:12:38.551Z,947.35
2018-10-02T13:13:46.532Z,947.32
2018-10-02T13:14:54.600Z,947.31
2018-10-02T13:16:02.645Z,947.31
2018-10-02T13:17:10.751Z,947.32
2018-10-02T13:18:18.905Z,947.32
2018-10-02T13:19:26.874Z,947.33
2018-10-02T13:20:34.929Z,947.35
2018-10-02T13:21:42.991Z,947.33
2018-10-02T13:22:51.169Z,947.37
2018-10-02T13:23:59.238Z,947.33
2018-10-02T13:25:07.209Z,947.33
2018-10-02T13:26:15.260Z,947.33
2018-10-02T13:27:23.316Z,947.34
2018-10-02T13:28:31.405Z,947.32
2018-10-02T13:29:39.567Z,947.31
2018-10-02T13:30:47.541Z,947.34
2018-10-02T13:33:07.920Z,947.33
2018-10-02T13:34:15.985Z,947.33
2018-10-02T13:35:24.486Z,947.33
2018-10-02T13:36:32.106Z,947.33
2018-10-02T13:37:40.217Z,947.30
2018-10-02T13:38:48.238Z,947.27
2018-10-02T13:39:56.307Z,947.32
2018-10-02T13:41:04.465Z,947.29
2018-10-02T13:42:12.437Z,947.30
2018-10-02T13:43:20.510Z,947.27
2018-10-02T13:44:28.650Z,947.30
2018-10-02T13:45:36.648Z,947.34
2018-10-02T13:46:44.813Z,947.34
2018-10-02T13:47:52.755Z,947.37
2018-10-02T13:49:00.859Z,947.34
2018-10-02T13:50:08.916Z,947.34
2018-10-02T13:51:16.970Z,947.34
2018-10-02T13:52:25.133Z,947.31
2018-10-02T13:53:33.092Z,947.36
2018-10-02T13:54:41.173Z,947.34
2018-10-02T13:55:49.255Z,947.34
2018-10-02T13:56:57.311Z,947.35
2018-10-02T13:58:05.469Z,947.32
2018-10-02T13:59:13.438Z,947.31
2018-10-02T14:00:21.927Z,947.30
2018-10-02T14:01:29.693Z,947.28
2018-10-02T14:02:37.791Z,947.30
2018-10-02T14:03:45.723Z,947.21
2018-10-02T14:04:53.804Z,947.22
2018-10-02T14:06:01.850Z,947.23
2018-10-02T14:07:09.920Z,947.20
2018-10-02T14:08:18.141Z,947.19
2018-10-02T14:09:26.038Z,947.18
2018-10-02T14:10:34.120Z,947.17
2018-10-02T14:11:42.164Z,947.23
2018-10-02T14:12:50.284Z,947.15
2018-10-02T14:13:58.316Z,947.22
2018-10-02T14:15:06.381Z,947.18